Time;durP1;ratioP1;P1;durP2;ratioP2;P2;SDS_P1;SDS_P2;PMS_P1;PMS_P2;Temp;Humidity;BMP_temperature;BMP_pressure;BME280_temperature;BME280_humidity;BME280_pressure;Samples;Min_cycle;Max_cycle;Signal;HPM_P1;HPM_P2
2022/01/11 00:00:02;;;;;;;34.63;22.10;;;3.00;99.90;;;;;;5000508;28;20014;-55
2022/01/11 00:02:29;;;;;;;33.75;21.10;;;3.00;99.90;;;;;;5000030;28;20030;-54
2022/01/11 00:04:55;;;;;;;33.47;20.60;;;3.00;99.90;;;;;;5000288;28;20030;-56
2022/01/11 00:07:22;;;;;;;32.53;19.27;;;3.00;99.90;;;;;;4999446;28;20514;-52
2022/01/11 00:09:50;;;;;;;39.80;21.30;;;3.00;99.90;;;;;;4999888;28;20040;-55
2022/01/11 00:12:16;;;;;;;32.70;20.25;;;3.00;99.90;;;;;;5000525;28;20030;-53
2022/01/11 00:14:41;;;;;;;31.50;20.17;;;3.00;99.90;;;;;;4999701;28;20088;-53
2022/01/11 00:17:07;;;;;;;32.15;19.92;;;3.00;99.90;;;;;;4999389;28;20635;-56
2022/01/11 00:19:33;;;;;;;30.52;19.30;;;3.00;99.90;;;;;;4999868;28;20674;-57
2022/01/11 00:22:03;;;;;;;31.77;19.50;;;3.00;99.90;;;;;;4999941;28;20038;-52
2022/01/11 00:24:36;;;;;;;28.98;18.45;;;3.10;99.90;;;;;;4999125;28;20076;-53
2022/01/11 00:27:08;;;;;;;31.70;17.92;;;3.10;99.90;;;;;;4999211;28;20112;-55
2022/01/11 00:29:36;;;;;;;29.77;19.70;;;3.10;99.90;;;;;;4998728;28;20030;-57
2022/01/11 00:32:06;;;;;;;26.65;18.27;;;3.10;99.90;;;;;;4999679;28;20034;-53
2022/01/11 00:34:46;;;;;;;35.92;20.63;;;3.10;99.90;;;;;;4998970;28;20042;-58
2022/01/11 00:37:12;;;;;;;26.42;16.45;;;3.10;99.90;;;;;;4999498;28;20030;-52
2022/01/11 00:39:37;;;;;;;28.73;18.85;;;3.00;99.90;;;;;;4999458;28;20057;-57
2022/01/11 00:42:03;;;;;;;30.83;19.00;;;3.00;99.90;;;;;;4998828;28;20038;-56
2022/01/11 00:44:29;;;;;;;30.10;17.92;;;3.00;99.90;;;;;;4999545;28;20030;-52
2022/01/11 00:46:55;;;;;;;26.55;16.90;;;3.00;99.90;;;;;;4998538;28;20117;-53
2022/01/11 00:49:21;;;;;;;26.98;17.70;;;3.00;99.90;;;;;;4998735;28;20105;-56
2022/01/11 00:51:46;;;;;;;30.20;17.65;;;3.00;99.90;;;;;;4998714;28;20026;-54
2022/01/11 00:54:12;;;;;;;25.80;16.33;;;3.00;99.90;;;;;;4999066;28;20029;-56
2022/01/11 00:56:37;;;;;;;24.80;15.98;;;3.00;99.90;;;;;;4998655;28;20083;-57
2022/01/11 00:59:03;;;;;;;21.88;15.10;;;3.00;99.90;;;;;;4999105;28;20022;-54
2022/01/11 01:01:34;;;;;;;27.15;16.27;;;3.00;99.90;;;;;;4998634;28;20025;-56
2022/01/11 01:04:00;;;;;;;23.90;15.73;;;3.00;99.90;;;;;;4999007;28;20022;-57
2022/01/11 01:06:25;;;;;;;25.35;16.00;;;2.90;99.90;;;;;;4981111;28;20037;-56
2022/01/11 01:08:51;;;;;;;22.48;15.05;;;2.90;99.90;;;;;;4999065;28;20027;-56
2022/01/11 01:11:16;;;;;;;25.63;14.77;;;2.90;99.90;;;;;;4995337;28;20030;-55
2022/01/11 01:13:42;;;;;;;23.90;15.43;;;2.90;99.90;;;;;;4998615;28;20034;-53
2022/01/11 01:16:08;;;;;;;27.75;15.93;;;2.90;99.90;;;;;;4998968;28;20029;-53
2022/01/11 01:18:36;;;;;;;23.85;15.55;;;2.90;99.90;;;;;;4999059;28;20032;-56
2022/01/11 01:21:02;;;;;;;25.63;15.98;;;2.90;99.90;;;;;;4999389;28;20074;-55
2022/01/11 01:23:28;;;;;;;26.45;15.70;;;2.90;99.90;;;;;;4999149;28;20023;-56
2022/01/11 01:25:54;;;;;;;24.60;14.48;;;2.90;99.90;;;;;;4998938;28;20044;-55
2022/01/11 01:28:20;;;;;;;26.33;15.10;;;2.90;99.90;;;;;;4997807;28;20468;-52
2022/01/11 01:30:47;;;;;;;22.20;14.70;;;2.90;99.90;;;;;;4998581;28;20038;-54
2022/01/11 01:33:13;;;;;;;24.17;15.40;;;2.90;99.90;;;;;;4998782;28;20034;-54
2022/01/11 01:35:39;;;;;;;25.38;15.43;;;2.90;99.90;;;;;;4998515;28;20399;-55
2022/01/11 01:38:09;;;;;;;23.13;14.55;;;2.90;99.90;;;;;;4997351;28;20024;-53
2022/01/11 01:40:42;;;;;;;22.30;14.18;;;3.00;99.90;;;;;;4998938;28;20030;-53
2022/01/11 01:43:09;;;;;;;25.35;14.98;;;2.90;99.90;;;;;;4997935;28;20036;-56
2022/01/11 01:45:36;;;;;;;23.73;14.82;;;2.90;99.90;;;;;;4997560;28;20496;-55
2022/01/11 01:48:03;;;;;;;23.42;15.57;;;2.90;99.90;;;;;;4998051;28;20064;-55
2022/01/11 01:50:29;;;;;;;24.15;14.60;;;2.90;99.90;;;;;;4998316;28;20040;-56
2022/01/11 01:52:57;;;;;;;21.45;13.48;;;2.90;99.90;;;;;;4998414;28;20054;-54
2022/01/11 01:55:23;;;;;;;23.98;14.45;;;2.90;99.90;;;;;;4998646;28;20106;-52
2022/01/11 01:57:50;;;;;;;23.50;15.00;;;2.90;99.90;;;;;;4996290;28;20127;-53
2022/01/11 02:00:20;;;;;;;19.58;13.80;;;2.90;99.90;;;;;;4996083;28;20108;-57
2022/01/11 02:02:46;;;;;;;23.67;14.32;;;2.90;99.90;;;;;;4995412;28;20037;-56
2022/01/11 02:05:12;;;;;;;24.17;14.43;;;2.90;99.90;;;;;;4997099;28;20022;-53
2022/01/11 02:07:38;;;;;;;22.83;14.55;;;2.90;99.90;;;;;;4998344;28;20467;-55
2022/01/11 02:10:06;;;;;;;28.77;14.00;;;2.90;99.90;;;;;;4998563;28;20026;-59
2022/01/11 02:12:31;;;;;;;21.33;14.23;;;2.90;99.90;;;;;;4998458;28;20032;-53
2022/01/11 02:14:57;;;;;;;22.67;14.15;;;2.90;99.90;;;;;;4997808;28;20030;-56
2022/01/11 02:17:26;;;;;;;20.75;14.88;;;2.90;99.90;;;;;;4998194;28;20416;-54
2022/01/11 02:19:54;;;;;;;21.08;14.15;;;2.90;99.90;;;;;;4998345;28;20030;-55
2022/01/11 02:22:20;;;;;;;22.85;13.50;;;2.90;99.90;;;;;;4998167;28;20452;-54
2022/01/11 02:24:46;;;;;;;23.92;15.23;;;2.90;99.90;;;;;;4998167;28;20065;-55
2022/01/11 02:27:12;;;;;;;20.17;13.13;;;2.90;99.90;;;;;;4997904;28;20037;-54
2022/01/11 02:29:38;;;;;;;24.02;14.00;;;2.90;99.90;;;;;;4997104;28;20093;-55
2022/01/11 02:32:04;;;;;;;23.35;14.35;;;2.90;99.90;;;;;;4998438;28;20504;-53
2022/01/11 02:34:30;;;;;;;20.67;13.98;;;2.90;99.90;;;;;;4998656;28;20041;-57
2022/01/11 02:36:56;;;;;;;22.23;14.40;;;2.90;99.90;;;;;;4997606;28;20031;-55
2022/01/11 02:39:21;;;;;;;22.90;13.75;;;2.90;99.90;;;;;;4998120;28;20113;-53
2022/01/11 02:41:52;;;;;;;24.75;15.32;;;2.90;99.90;;;;;;4997385;28;20165;-54
2022/01/11 02:44:18;;;;;;;22.92;15.50;;;2.90;99.90;;;;;;4997400;28;20022;-52
2022/01/11 02:46:44;;;;;;;26.40;15.85;;;2.90;99.90;;;;;;4998214;28;20042;-53
2022/01/11 02:49:09;;;;;;;23.60;14.82;;;2.90;99.90;;;;;;4998336;28;20524;-54
2022/01/11 02:51:35;;;;;;;24.98;14.77;;;2.80;99.90;;;;;;4997018;28;20065;-54
2022/01/11 02:54:01;;;;;;;25.58;15.55;;;2.80;99.90;;;;;;4997855;28;20038;-55
2022/01/11 02:56:26;;;;;;;23.75;15.18;;;2.80;99.90;;;;;;5001169;28;20037;-57
2022/01/11 02:58:52;;;;;;;22.67;14.55;;;2.80;99.90;;;;;;5001187;28;20030;-55
2022/01/11 03:01:18;;;;;;;24.20;14.25;;;2.80;99.90;;;;;;5001587;28;20476;-57
2022/01/11 03:03:45;;;;;;;27.40;16.73;;;2.80;99.90;;;;;;5000997;28;20023;-54
2022/01/11 03:06:10;;;;;;;23.73;15.35;;;2.80;99.90;;;;;;5001545;28;20506;-53
2022/01/11 03:08:43;;;;;;;27.83;15.50;;;2.80;99.90;;;;;;5000764;28;20032;-55
2022/01/11 03:11:10;;;;;;;22.70;15.18;;;2.80;99.90;;;;;;5001366;28;20320;-54
2022/01/11 03:13:38;;;;;;;22.40;15.27;;;2.80;99.90;;;;;;5001181;28;20038;-53
2022/01/11 03:16:04;;;;;;;23.80;14.88;;;2.80;99.90;;;;;;5000649;28;20035;-54
2022/01/11 03:18:30;;;;;;;24.45;14.85;;;2.80;99.90;;;;;;5001293;28;20040;-53
2022/01/11 03:20:56;;;;;;;23.92;14.25;;;2.80;99.90;;;;;;5000996;28;20014;-53
2022/01/11 03:23:22;;;;;;;21.90;14.85;;;2.80;99.90;;;;;;5000321;28;20025;-54
2022/01/11 03:25:52;;;;;;;23.10;14.57;;;2.80;99.90;;;;;;5000736;28;20105;-51
2022/01/11 03:28:20;;;;;;;23.25;15.15;;;2.80;99.90;;;;;;5000642;28;20044;-53
2022/01/11 03:30:46;;;;;;;22.73;15.75;;;2.80;99.90;;;;;;5000269;28;20042;-54
2022/01/11 03:33:12;;;;;;;21.95;13.77;;;2.80;99.90;;;;;;5001150;28;20048;-54
2022/01/11 03:35:40;;;;;;;26.90;16.25;;;2.80;99.90;;;;;;5001620;28;20053;-53
2022/01/11 03:38:07;;;;;;;26.23;14.90;;;2.80;99.90;;;;;;5000452;28;20476;-54
2022/01/11 03:40:34;;;;;;;25.13;15.30;;;2.80;99.90;;;;;;5000888;28;20034;-53
2022/01/11 03:42:59;;;;;;;25.45;16.17;;;2.80;99.90;;;;;;5000576;28;20022;-56
2022/01/11 03:45:26;;;;;;;28.52;15.60;;;2.80;99.90;;;;;;4999944;28;20511;-53
2022/01/11 03:47:55;;;;;;;26.77;15.57;;;2.80;99.90;;;;;;5000699;28;20026;-54
2022/01/11 03:50:21;;;;;;;26.70;15.70;;;2.80;99.90;;;;;;5000251;28;20466;-55
2022/01/11 03:55:42;;;;;;;29.27;16.92;;;2.80;99.90;;;;;;4986209;28;20043;-56
2022/01/11 03:58:08;;;;;;;27.35;16.80;;;2.90;99.90;;;;;;4989641;28;20057;-57
2022/01/11 04:00:33;;;;;;;25.95;15.50;;;2.80;99.90;;;;;;4991133;28;20404;-56
2022/01/11 04:02:59;;;;;;;24.45;16.27;;;2.80;99.90;;;;;;4988773;28;20054;-57
2022/01/11 04:05:24;;;;;;;30.02;15.70;;;2.80;99.90;;;;;;4989058;28;20026;-56
2022/01/11 04:07:50;;;;;;;32.20;18.48;;;2.80;99.90;;;;;;4990567;28;20026;-56
2022/01/11 04:10:16;;;;;;;29.02;17.33;;;2.80;99.90;;;;;;4989282;28;20030;-57
2022/01/11 04:12:41;;;;;;;36.28;17.95;;;2.90;99.90;;;;;;4990337;28;20034;-56
2022/01/11 04:15:08;;;;;;;30.20;17.40;;;2.90;99.90;;;;;;4990221;28;20034;-56
2022/01/11 04:17:34;;;;;;;32.03;19.23;;;2.90;99.90;;;;;;4990040;28;20108;-57
2022/01/11 04:19:59;;;;;;;30.60;17.63;;;2.90;99.90;;;;;;4989851;28;20480;-55
2022/01/11 04:22:25;;;;;;;32.05;18.95;;;2.90;99.90;;;;;;4988283;28;20165;-56
2022/01/11 04:24:51;;;;;;;29.73;17.58;;;2.90;99.90;;;;;;4989761;28;20109;-56
2022/01/11 04:27:16;;;;;;;35.58;18.50;;;2.90;99.90;;;;;;4987789;28;20088;-56
2022/01/11 04:29:42;;;;;;;30.67;17.30;;;2.90;99.90;;;;;;4989276;28;20030;-58
2022/01/11 04:32:08;;;;;;;34.13;18.42;;;2.90;99.90;;;;;;4990287;28;20040;-59
2022/01/11 04:34:33;;;;;;;34.25;18.33;;;2.90;99.90;;;;;;4988745;28;20060;-56
2022/01/11 04:36:59;;;;;;;30.17;16.65;;;2.90;99.90;;;;;;4989717;28;20120;-54
2022/01/11 04:39:25;;;;;;;34.72;18.63;;;2.90;99.90;;;;;;4988576;28;20137;-56
2022/01/11 04:41:51;;;;;;;31.50;18.70;;;2.90;99.90;;;;;;4990064;28;20084;-56
2022/01/11 04:44:16;;;;;;;39.10;20.73;;;2.90;99.90;;;;;;4988403;28;20044;-54
2022/01/11 04:46:42;;;;;;;28.50;17.10;;;2.90;99.90;;;;;;4990013;28;20029;-56
2022/01/11 04:49:08;;;;;;;35.58;19.65;;;2.90;99.90;;;;;;4986130;28;20058;-57
2022/01/11 04:51:35;;;;;;;36.67;20.63;;;2.90;99.90;;;;;;4989099;28;20081;-57
2022/01/11 04:54:01;;;;;;;33.78;18.33;;;2.90;99.90;;;;;;4987265;28;20404;-57
2022/01/11 04:56:27;;;;;;;37.95;20.15;;;2.90;99.90;;;;;;4988696;28;20587;-55
2022/01/11 04:58:52;;;;;;;35.10;18.15;;;2.90;99.90;;;;;;4988575;28;20030;-56
2022/01/11 05:01:18;;;;;;;40.58;20.23;;;2.90;99.90;;;;;;4987939;28;20062;-57
2022/01/11 05:03:44;;;;;;;39.65;21.02;;;2.90;99.90;;;;;;4988881;28;20509;-57
2022/01/11 05:06:09;;;;;;;36.38;20.85;;;2.90;99.90;;;;;;4988041;28;20053;-56
2022/01/11 05:08:35;;;;;;;39.55;20.52;;;2.90;99.90;;;;;;4987701;28;20022;-57
2022/01/11 05:11:01;;;;;;;36.13;19.25;;;2.90;99.90;;;;;;4989346;28;20026;-54
2022/01/11 05:13:27;;;;;;;38.50;20.15;;;2.90;99.90;;;;;;4987449;28;20066;-55
2022/01/11 05:15:52;;;;;;;40.85;20.63;;;2.90;99.90;;;;;;4988207;28;20049;-57
2022/01/11 05:18:18;;;;;;;36.50;19.85;;;2.90;99.90;;;;;;4988130;28;20121;-55
2022/01/11 05:20:46;;;;;;;44.22;21.35;;;2.90;99.90;;;;;;4987796;28;20116;-55
2022/01/11 05:23:13;;;;;;;40.15;21.23;;;2.90;99.90;;;;;;4988991;28;20029;-55
2022/01/11 05:25:39;;;;;;;43.92;21.48;;;2.90;99.90;;;;;;4988419;28;20284;-56
2022/01/11 05:28:05;;;;;;;36.75;19.98;;;3.00;99.90;;;;;;4988737;28;20544;-56
2022/01/11 05:30:31;;;;;;;41.63;22.10;;;2.90;99.90;;;;;;4987799;28;20117;-56
2022/01/11 05:32:57;;;;;;;41.22;20.45;;;3.00;99.90;;;;;;4987724;28;20026;-54
2022/01/11 05:35:24;;;;;;;44.22;22.20;;;2.90;99.90;;;;;;4987973;28;20053;-56
2022/01/11 05:37:50;;;;;;;45.60;22.40;;;2.90;99.90;;;;;;4988916;28;20547;-55
2022/01/11 05:40:17;;;;;;;44.08;22.52;;;2.90;99.90;;;;;;4987738;28;20025;-56
2022/01/11 05:42:44;;;;;;;44.50;21.58;;;2.90;99.90;;;;;;4987990;28;20018;-56
2022/01/11 05:45:12;;;;;;;46.83;23.08;;;3.00;99.90;;;;;;4988234;28;20084;-57
2022/01/11 05:47:38;;;;;;;44.70;21.70;;;2.90;99.90;;;;;;4988034;28;20045;-57
2022/01/11 05:50:08;;;;;;;43.58;23.20;;;3.00;99.90;;;;;;4987999;28;20088;-55
2022/01/11 05:52:35;;;;;;;48.08;23.13;;;3.00;99.90;;;;;;4988490;28;20496;-57
2022/01/11 05:55:01;;;;;;;49.22;23.35;;;3.00;99.90;;;;;;4986444;28;20034;-57
2022/01/11 05:57:27;;;;;;;44.45;21.40;;;3.00;99.90;;;;;;4986960;28;20030;-57
2022/01/11 05:59:52;;;;;;;52.70;22.70;;;2.90;99.90;;;;;;4986332;28;20031;-57
2022/01/11 06:02:18;;;;;;;43.50;21.02;;;3.00;99.90;;;;;;4988926;28;20423;-56
2022/01/11 06:04:43;;;;;;;46.75;21.70;;;3.00;99.90;;;;;;4984829;28;20026;-57
2022/01/11 06:07:09;;;;;;;46.15;22.48;;;3.00;99.90;;;;;;4988790;28;20067;-56
2022/01/11 06:09:35;;;;;;;40.33;21.30;;;3.00;99.90;;;;;;4988654;28;20245;-57
2022/01/11 06:12:00;;;;;;;54.53;22.55;;;3.00;99.90;;;;;;4988060;28;20110;-56
2022/01/11 06:14:26;;;;;;;48.47;20.45;;;3.00;99.90;;;;;;4988271;28;20026;-55
2022/01/11 06:16:52;;;;;;;41.65;21.73;;;3.00;99.90;;;;;;4986792;28;20031;-56
2022/01/11 06:19:18;;;;;;;41.92;18.80;;;3.00;99.90;;;;;;4986270;28;20385;-55
2022/01/11 06:21:43;;;;;;;43.97;20.85;;;3.00;99.90;;;;;;4987732;28;20507;-57
2022/01/11 06:24:09;;;;;;;48.28;21.77;;;3.00;99.90;;;;;;4987769;28;20118;-56
2022/01/11 06:26:35;;;;;;;40.03;19.65;;;3.00;99.90;;;;;;4986009;28;20085;-56
2022/01/11 06:29:02;;;;;;;42.13;19.48;;;3.00;99.90;;;;;;4991850;28;20034;-57
2022/01/11 06:31:28;;;;;;;35.22;18.42;;;3.00;99.90;;;;;;4992042;28;20042;-57
2022/01/11 06:33:54;;;;;;;37.13;20.23;;;3.00;99.90;;;;;;4991755;28;20038;-57
2022/01/11 06:36:20;;;;;;;38.72;18.67;;;3.00;99.90;;;;;;4991219;28;20068;-55
2022/01/11 06:38:46;;;;;;;42.28;20.52;;;3.00;99.90;;;;;;4990360;28;20627;-57
2022/01/11 06:41:12;;;;;;;38.10;18.52;;;3.00;99.90;;;;;;4988237;28;20034;-58
2022/01/11 06:43:38;;;;;;;35.50;18.85;;;3.00;99.90;;;;;;4990275;28;20042;-57
2022/01/11 06:46:05;;;;;;;38.58;18.83;;;3.00;99.90;;;;;;4991618;28;20540;-56
2022/01/11 06:48:31;;;;;;;41.80;19.67;;;3.00;99.90;;;;;;4989786;28;20073;-58
2022/01/11 06:50:57;;;;;;;42.85;20.55;;;3.00;99.90;;;;;;4992125;28;20037;-57
2022/01/11 06:53:23;;;;;;;37.47;20.85;;;3.00;99.90;;;;;;4991345;28;20038;-57
2022/01/11 06:55:50;;;;;;;44.70;21.73;;;3.00;99.90;;;;;;4991074;28;20076;-57
2022/01/11 06:58:16;;;;;;;39.60;19.55;;;3.00;99.90;;;;;;4990725;28;20053;-55
2022/01/11 07:00:43;;;;;;;39.22;20.48;;;3.00;99.90;;;;;;4992058;28;20014;-57
2022/01/11 07:03:08;;;;;;;37.35;19.80;;;3.00;99.90;;;;;;4992101;28;20459;-57
2022/01/11 07:05:34;;;;;;;40.28;18.85;;;3.00;99.90;;;;;;4990670;28;20026;-54
2022/01/11 07:08:00;;;;;;;27.80;15.30;;;3.00;99.90;;;;;;4991995;28;20523;-56
2022/01/11 07:10:25;;;;;;;34.83;18.48;;;3.00;99.90;;;;;;4991484;28;20023;-56
2022/01/11 07:12:51;;;;;;;32.42;17.88;;;3.00;99.90;;;;;;4991636;28;20030;-57
2022/01/11 07:15:16;;;;;;;32.92;16.83;;;3.00;99.90;;;;;;4991010;28;20104;-57
2022/01/11 07:17:42;;;;;;;34.28;16.52;;;3.00;99.90;;;;;;4991389;28;20026;-57
2022/01/11 07:20:09;;;;;;;33.10;17.35;;;3.00;99.90;;;;;;4989524;28;20469;-56
2022/01/11 07:22:37;;;;;;;34.05;16.65;;;3.00;99.90;;;;;;4991551;28;20030;-56
2022/01/11 07:25:04;;;;;;;34.05;17.15;;;3.00;99.90;;;;;;4991343;28;20030;-57
2022/01/11 07:27:31;;;;;;;29.98;15.55;;;3.00;99.90;;;;;;4990984;28;20041;-56
2022/01/11 07:29:57;;;;;;;30.20;15.68;;;3.00;99.90;;;;;;4991115;28;20034;-55
2022/01/11 07:32:23;;;;;;;30.27;15.32;;;3.00;99.90;;;;;;4991567;28;20026;-57
2022/01/11 07:34:49;;;;;;;29.33;14.75;;;3.00;99.90;;;;;;4991268;28;20026;-56
2022/01/11 07:37:16;;;;;;;31.17;16.58;;;3.00;99.90;;;;;;4991728;28;20054;-56
2022/01/11 07:39:41;;;;;;;31.30;15.10;;;3.00;99.90;;;;;;4990772;28;20042;-56
2022/01/11 07:42:07;;;;;;;29.50;14.68;;;3.00;99.90;;;;;;4990165;28;20022;-56
2022/01/11 07:44:33;;;;;;;26.02;15.02;;;3.00;99.90;;;;;;4990480;28;20078;-57
2022/01/11 07:46:59;;;;;;;22.65;14.52;;;3.00;99.90;;;;;;4990741;28;20053;-57
2022/01/11 07:49:25;;;;;;;28.17;15.75;;;3.00;99.90;;;;;;4990561;28;20113;-57
2022/01/11 07:51:50;;;;;;;28.15;15.45;;;3.00;99.90;;;;;;4989719;28;20109;-56
2022/01/11 07:54:16;;;;;;;25.65;15.20;;;3.00;99.90;;;;;;4990784;28;20146;-58
2022/01/11 07:56:42;;;;;;;33.55;14.20;;;3.10;99.90;;;;;;4990804;28;20113;-57
2022/01/11 07:59:09;;;;;;;33.05;14.65;;;3.00;99.90;;;;;;4990649;28;20257;-58
2022/01/11 08:01:35;;;;;;;29.73;14.93;;;3.00;99.90;;;;;;4989594;28;20062;-57
2022/01/11 08:04:01;;;;;;;30.20;14.07;;;3.00;99.90;;;;;;4990887;28;20464;-58
2022/01/11 08:06:26;;;;;;;27.95;16.33;;;3.10;99.90;;;;;;4989363;28;20096;-57
2022/01/11 08:08:52;;;;;;;32.47;17.25;;;3.00;99.90;;;;;;4990307;28;20035;-57
2022/01/11 08:11:17;;;;;;;29.23;14.52;;;3.00;99.90;;;;;;4990426;28;20489;-57
2022/01/11 08:13:43;;;;;;;26.35;16.25;;;3.10;99.90;;;;;;4990408;28;20109;-57
2022/01/11 08:16:09;;;;;;;27.88;15.48;;;3.00;99.90;;;;;;4991015;28;20693;-57
2022/01/11 08:18:34;;;;;;;30.05;15.60;;;3.10;99.90;;;;;;4989714;28;20530;-57
2022/01/11 08:21:00;;;;;;;30.95;16.40;;;3.10;99.90;;;;;;4988904;28;20031;-58
2022/01/11 08:23:26;;;;;;;23.98;14.75;;;3.10;99.90;;;;;;4989617;28;20022;-58
2022/01/11 08:25:52;;;;;;;34.42;14.98;;;3.10;99.90;;;;;;4987608;28;20535;-55
2022/01/11 08:28:17;;;;;;;27.92;15.07;;;3.10;99.90;;;;;;4987788;28;20053;-57
2022/01/11 08:30:43;;;;;;;27.85;13.75;;;3.00;99.90;;;;;;4989602;28;20117;-58
2022/01/11 08:33:09;;;;;;;26.08;13.27;;;3.00;99.90;;;;;;4989415;28;20034;-56
2022/01/11 08:35:35;;;;;;;25.80;12.43;;;3.00;99.90;;;;;;4989109;28;20022;-56
2022/01/11 08:38:02;;;;;;;24.42;11.95;;;3.00;99.90;;;;;;4988519;28;20026;-58
2022/01/11 08:40:28;;;;;;;26.58;13.43;;;3.00;99.90;;;;;;4989795;28;20022;-55
2022/01/11 08:42:53;;;;;;;21.60;12.43;;;3.00;99.90;;;;;;4989322;28;20029;-57
2022/01/11 08:45:20;;;;;;;25.88;12.38;;;3.00;99.90;;;;;;4989881;28;20030;-57
2022/01/11 08:47:46;;;;;;;23.63;11.93;;;3.00;99.90;;;;;;4988648;28;20109;-55
2022/01/11 08:50:12;;;;;;;26.40;11.40;;;3.00;99.90;;;;;;4989154;28;20165;-57
2022/01/11 08:52:42;;;;;;;26.23;12.05;;;3.00;99.90;;;;;;4989376;28;20034;-57
2022/01/11 08:55:11;;;;;;;26.95;13.40;;;3.00;99.90;;;;;;4988910;28;20026;-56
2022/01/11 08:57:36;;;;;;;21.63;11.07;;;3.00;99.90;;;;;;4989236;28;20032;-56
2022/01/11 09:00:10;;;;;;;23.85;12.77;;;3.00;99.90;;;;;;4988331;28;20029;-56
2022/01/11 09:02:37;;;;;;;23.73;12.40;;;3.00;99.90;;;;;;4988623;28;20100;-57
2022/01/11 09:05:03;;;;;;;33.95;14.05;;;3.00;99.90;;;;;;4988226;28;20030;-57
2022/01/11 09:07:29;;;;;;;26.10;13.52;;;3.00;99.90;;;;;;4989269;28;20029;-57
2022/01/11 09:09:55;;;;;;;26.60;13.90;;;3.00;99.90;;;;;;4989563;28;20444;-56
2022/01/11 09:12:20;;;;;;;30.35;14.07;;;3.00;99.90;;;;;;4989571;28;20062;-58
2022/01/11 09:14:46;;;;;;;30.00;13.30;;;3.00;99.90;;;;;;4989431;28;20107;-57
2022/01/11 09:17:12;;;;;;;27.77;13.95;;;3.00;99.90;;;;;;4989757;28;20027;-56
2022/01/11 09:19:38;;;;;;;32.28;14.68;;;3.10;99.90;;;;;;4989190;28;20025;-57
2022/01/11 09:22:05;;;;;;;29.83;14.50;;;3.10;99.90;;;;;;4989679;28;20061;-58
2022/01/11 09:24:30;;;;;;;25.70;13.25;;;3.10;99.90;;;;;;4989316;28;20030;-57
2022/01/11 09:27:00;;;;;;;29.27;14.77;;;3.10;99.90;;;;;;4989324;28;20035;-55
2022/01/11 09:29:27;;;;;;;34.75;15.20;;;3.20;99.90;;;;;;4987640;28;20089;-57
2022/01/11 09:31:56;;;;;;;28.70;15.80;;;3.10;99.90;;;;;;4989120;28;20105;-57
2022/01/11 09:34:22;;;;;;;24.00;13.80;;;3.20;99.90;;;;;;4988337;28;20057;-55
2022/01/11 09:36:47;;;;;;;24.83;13.70;;;3.20;99.90;;;;;;4989433;28;20306;-58
2022/01/11 09:39:13;;;;;;;26.70;14.35;;;3.20;99.90;;;;;;4989003;28;20018;-56
2022/01/11 09:41:39;;;;;;;28.30;14.95;;;3.30;99.90;;;;;;4988218;28;20014;-58
2022/01/11 09:44:06;;;;;;;22.58;13.13;;;3.30;99.90;;;;;;4988567;28;20076;-57
2022/01/11 09:46:32;;;;;;;26.58;13.23;;;3.30;99.90;;;;;;4987080;28;20026;-57
2022/01/11 09:48:58;;;;;;;23.48;12.50;;;3.40;99.90;;;;;;4988878;28;20042;-56
2022/01/11 09:51:24;;;;;;;26.55;12.57;;;3.40;99.90;;;;;;4989241;28;20033;-56
2022/01/11 09:53:50;;;;;;;24.90;11.35;;;3.40;99.90;;;;;;4989195;28;20038;-58
2022/01/11 09:56:15;;;;;;;24.90;11.18;;;3.40;99.90;;;;;;5006288;23;20042;-54
2022/01/11 09:58:43;;;;;;;20.27;11.55;;;3.40;99.90;;;;;;5007535;28;20499;-58
2022/01/11 10:01:08;;;;;;;19.05;10.77;;;3.50;99.90;;;;;;5008169;28;20030;-56
2022/01/11 10:03:57;;;;;;;21.95;13.00;;;3.50;99.90;;;;;;5011214;28;20603;-56
2022/01/11 10:06:25;;;;;;;24.85;12.43;;;3.60;99.90;;;;;;5012014;28;20499;-53
2022/01/11 10:08:51;;;;;;;20.80;11.75;;;3.60;99.90;;;;;;5012366;28;20026;-56
2022/01/11 10:11:37;;;;;;;24.40;12.10;;;3.60;99.90;;;;;;5012506;28;20025;-53
2022/01/11 10:14:32;;;;;;;19.55;11.45;;;3.60;99.90;;;;;;5012954;28;20030;-55
2022/01/11 10:17:05;;;;;;;19.35;11.70;;;3.70;99.90;;;;;;5012237;28;20029;-54
2022/01/11 10:19:31;;;;;;;27.95;13.95;;;3.70;99.90;;;;;;5012542;28;20038;-54
2022/01/11 10:21:57;;;;;;;21.58;12.65;;;3.70;99.90;;;;;;5012185;28;20065;-53
2022/01/11 10:24:35;;;;;;;23.65;13.38;;;3.70;99.90;;;;;;5012097;28;20566;-53
2022/01/11 10:27:04;;;;;;;23.70;13.48;;;3.80;99.90;;;;;;5011830;28;20048;-53
2022/01/11 10:29:31;;;;;;;25.65;13.40;;;3.70;99.90;;;;;;5012071;28;20026;-56
2022/01/11 10:31:59;;;;;;;27.38;14.30;;;3.80;99.90;;;;;;5011633;28;20030;-54
2022/01/11 10:34:33;;;;;;;21.42;12.98;;;3.80;99.90;;;;;;5012203;28;20030;-56
2022/01/11 10:37:01;;;;;;;24.95;13.50;;;3.90;99.90;;;;;;5011702;28;20472;-56
2022/01/11 10:39:36;;;;;;;20.60;12.50;;;3.90;99.90;;;;;;5009333;28;20037;-55
2022/01/11 10:42:02;;;;;;;22.23;13.57;;;3.90;99.90;;;;;;5010487;28;20033;-53
2022/01/11 10:44:51;;;;;;;20.77;12.85;;;4.00;99.90;;;;;;5011853;28;20079;-55
2022/01/11 10:47:27;;;;;;;20.27;12.90;;;3.90;99.90;;;;;;5009759;28;20038;-53
2022/01/11 10:49:56;;;;;;;23.80;12.90;;;4.00;99.90;;;;;;5011146;28;20026;-54
2022/01/11 10:52:28;;;;;;;23.58;12.95;;;4.00;99.90;;;;;;5010632;28;20552;-53
2022/01/11 10:54:55;;;;;;;23.90;13.80;;;4.00;99.90;;;;;;5010956;28;20041;-51
2022/01/11 10:57:28;;;;;;;23.70;12.57;;;4.00;99.90;;;;;;5010290;28;20403;-54
2022/01/11 11:00:05;;;;;;;23.05;13.40;;;4.10;99.90;;;;;;5010868;28;20022;-53
2022/01/11 11:02:31;;;;;;;24.33;12.00;;;4.10;99.90;;;;;;5010942;28;20396;-51
2022/01/11 11:05:00;;;;;;;23.90;12.88;;;4.20;99.90;;;;;;5010981;28;20029;-55
2022/01/11 11:07:27;;;;;;;22.60;12.90;;;4.20;99.90;;;;;;5011103;28;20030;-55
2022/01/11 11:09:54;;;;;;;23.60;12.75;;;4.20;99.90;;;;;;5010927;28;20033;-54
2022/01/11 11:12:22;;;;;;;23.23;12.88;;;4.30;99.90;;;;;;5010864;28;20121;-51
2022/01/11 11:14:53;;;;;;;20.52;11.85;;;4.30;99.90;;;;;;5008653;28;20026;-52
2022/01/11 11:17:34;;;;;;;21.27;11.65;;;4.30;99.90;;;;;;5011039;28;20527;-56
2022/01/11 11:20:08;;;;;;;22.48;11.98;;;4.30;99.90;;;;;;5011016;28;20038;-51
2022/01/11 11:22:34;;;;;;;20.65;11.75;;;4.30;99.90;;;;;;5011021;28;20017;-53
2022/01/11 11:25:00;;;;;;;18.00;10.07;;;4.20;99.90;;;;;;5010817;28;20476;-52
2022/01/11 11:27:28;;;;;;;21.98;10.75;;;4.20;99.90;;;;;;5010114;28;20117;-53
2022/01/11 11:29:54;;;;;;;20.48;12.38;;;4.30;99.90;;;;;;5010293;28;20115;-52
2022/01/11 11:32:21;;;;;;;17.30;9.63;;;4.20;99.90;;;;;;5010509;28;20049;-51
2022/01/11 11:34:49;;;;;;;16.95;10.50;;;4.30;99.90;;;;;;5010135;28;20032;-51
2022/01/11 11:37:19;;;;;;;23.05;10.93;;;4.30;99.90;;;;;;5010673;28;20396;-52
2022/01/11 11:39:47;;;;;;;19.02;10.77;;;4.40;99.90;;;;;;5010122;28;20021;-51
2022/01/11 11:42:17;;;;;;;15.65;9.68;;;4.40;99.90;;;;;;5010053;28;20093;-52
2022/01/11 11:44:44;;;;;;;17.55;9.88;;;4.30;99.90;;;;;;5010524;28;20058;-53
2022/01/11 11:47:10;;;;;;;23.67;10.52;;;4.30;99.90;;;;;;5010259;28;20520;-52
2022/01/11 11:49:49;;;;;;;23.55;11.27;;;4.30;99.90;;;;;;5010355;28;20026;-52
2022/01/11 11:52:35;;;;;;;15.85;9.82;;;4.30;99.90;;;;;;5010285;28;20072;-53
2022/01/11 11:55:10;;;;;;;16.40;8.80;;;4.30;99.90;;;;;;5009540;28;20481;-54
2022/01/11 11:57:40;;;;;;;14.40;9.85;;;4.20;99.90;;;;;;5010068;28;20104;-53
2022/01/11 12:00:22;;;;;;;17.75;11.75;;;4.30;99.90;;;;;;5009111;28;20030;-52
2022/01/11 12:02:51;;;;;;;20.77;11.18;;;4.20;99.90;;;;;;5010836;28;20434;-53
2022/01/11 12:05:40;;;;;;;18.25;10.63;;;4.20;99.90;;;;;;5009199;28;20045;-51
2022/01/11 12:08:24;;;;;;;20.02;10.07;;;4.20;99.90;;;;;;5009997;28;20040;-53
2022/01/11 12:10:54;;;;;;;18.70;10.75;;;4.20;99.90;;;;;;5009804;28;20078;-51
2022/01/11 12:13:47;;;;;;;18.75;10.10;;;4.20;99.90;;;;;;5008760;28;20068;-54
2022/01/11 12:16:25;;;;;;;19.05;9.55;;;4.20;99.90;;;;;;5009791;28;20025;-52
2022/01/11 12:18:51;;;;;;;19.27;11.43;;;4.20;99.90;;;;;;5009349;28;20025;-50
2022/01/11 12:21:17;;;;;;;14.35;9.40;;;4.20;99.90;;;;;;5009454;28;20455;-53
2022/01/11 12:23:49;;;;;;;24.05;10.27;;;4.20;99.90;;;;;;5010189;28;20022;-52
2022/01/11 12:26:19;;;;;;;19.65;9.70;;;4.20;99.90;;;;;;5008593;28;20033;-53
2022/01/11 12:29:09;;;;;;;17.42;9.85;;;4.20;99.90;;;;;;5009789;28;20048;-52
2022/01/11 12:31:53;;;;;;;18.13;9.10;;;4.20;99.90;;;;;;5009325;28;20026;-55
2022/01/11 12:34:19;;;;;;;22.00;9.18;;;4.10;99.90;;;;;;5010202;28;20100;-54
2022/01/11 12:36:55;;;;;;;12.68;9.20;;;4.20;99.90;;;;;;5009067;28;20175;-52
2022/01/11 12:39:26;;;;;;;18.63;9.80;;;4.20;99.90;;;;;;4991601;28;20181;-54
2022/01/11 12:41:53;;;;;;;15.45;8.95;;;4.20;99.90;;;;;;5009681;28;20033;-52